Time;durP1;ratioP1;P1;durP2;ratioP2;P2;SDS_P1;SDS_P2;PMS_P1;PMS_P2;Temp;Humidity;BMP_temperature;BMP_pressure;BME280_temperature;BME280_humidity;BME280_pressure;Samples;Min_cycle;Max_cycle;Signal;HPM_P1;HPM_P2
2022/09/18 00:03:24;;;;;;;4.50;1.80;;;;;12.70;98944.00;;;;16590536;28;20229;-46
2022/09/18 00:11:32;;;;;;;3.70;1.67;;;;;13.10;98938.00;;;;16582006;28;20242;-47
2022/09/18 00:19:35;;;;;;;8.70;3.47;;;;;13.20;98943.00;;;;16588443;28;20240;-47
2022/09/18 00:27:39;;;;;;;5.50;2.10;;;;;12.80;98953.00;;;;16584724;28;20967;-47
2022/09/18 00:35:43;;;;;;;5.97;2.13;;;;;12.60;98949.00;;;;16587904;28;20568;-47
2022/09/18 00:43:47;;;;;;;5.23;2.23;;;;;12.50;98955.00;;;;16589998;28;20218;-47
2022/09/18 00:51:51;;;;;;;7.10;2.60;;;;;12.40;98951.00;;;;16581178;28;20943;-46
2022/09/18 00:59:56;;;;;;;6.00;2.20;;;;;12.70;98956.00;;;;16587485;28;20306;-47
2022/09/18 01:08:09;;;;;;;3.17;2.30;;;;;12.80;98955.00;;;;16593035;28;20232;-46
2022/09/18 01:16:19;;;;;;;5.30;2.33;;;;;12.90;98956.00;;;;16582408;28;20195;-46
2022/09/18 01:24:41;;;;;;;4.50;3.00;;;;;13.30;98953.00;;;;16577222;28;20232;-47
2022/09/18 01:32:49;;;;;;;5.07;2.00;;;;;12.80;98969.00;;;;16557726;28;20962;-47
2022/09/18 01:40:55;;;;;;;3.67;1.97;;;;;12.90;98963.00;;;;16588081;28;20245;-46
2022/09/18 01:49:02;;;;;;;3.63;1.60;;;;;12.70;98952.00;;;;16572239;28;20976;-47
2022/09/18 01:57:10;;;;;;;4.47;1.67;;;;;13.10;98943.00;;;;16567606;28;20192;-46
2022/09/18 02:05:20;;;;;;;4.90;1.63;;;;;13.20;98927.00;;;;16586613;28;20222;-47
2022/09/18 02:13:29;;;;;;;4.47;1.83;;;;;13.30;98926.00;;;;16584968;28;20219;-47
2022/09/18 02:21:34;;;;;;;3.53;1.80;;;;;13.30;98920.00;;;;16578519;28;20254;-47
2022/09/18 02:29:37;;;;;;;2.80;1.50;;;;;13.90;98921.00;;;;16583231;28;20224;-47
2022/09/18 02:37:48;;;;;;;3.33;1.87;;;;;13.50;98916.00;;;;16595006;28;20219;-47
2022/09/18 02:45:56;;;;;;;1.87;1.73;;;;;13.90;98905.00;;;;16601255;28;20718;-47
2022/09/18 02:54:06;;;;;;;3.03;1.70;;;;;13.40;98922.00;;;;16592597;28;20230;-47
2022/09/18 03:02:09;;;;;;;3.53;2.20;;;;;13.10;98924.00;;;;16612134;28;20239;-47
2022/09/18 03:10:15;;;;;;;4.60;2.07;;;;;12.60;98923.00;;;;16595918;28;20338;-46
2022/09/18 03:18:18;;;;;;;7.13;1.87;;;;;12.40;98915.00;;;;16596960;28;20220;-46
2022/09/18 03:26:22;;;;;;;4.23;2.10;;;;;12.50;98908.00;;;;16602290;28;20215;-47
2022/09/18 03:34:29;;;;;;;5.73;1.90;;;;;12.40;98919.00;;;;16593427;28;20720;-47
2022/09/18 03:42:34;;;;;;;4.10;1.73;;;;;12.60;98913.00;;;;16594064;28;20216;-47
2022/09/18 03:50:37;;;;;;;3.67;1.97;;;;;12.80;98909.00;;;;16580815;28;20738;-47
2022/09/18 03:58:44;;;;;;;4.43;2.10;;;;;13.40;98904.00;;;;16604373;28;20219;-47
2022/09/18 04:06:55;;;;;;;1.93;1.30;;;;;12.80;98928.00;;;;16597827;28;20219;-47
2022/09/18 04:15:18;;;;;;;1.90;1.33;;;;;12.50;98935.00;;;;16596699;28;20238;-46
2022/09/18 04:23:22;;;;;;;6.07;1.80;;;;;12.60;98941.00;;;;16589584;28;20897;-46
2022/09/18 04:31:27;;;;;;;6.33;2.30;;;;;12.60;98937.00;;;;16594077;28;20239;-47
2022/09/18 04:39:32;;;;;;;2.30;1.50;;;;;12.60;98932.00;;;;16591846;28;20313;-47
2022/09/18 04:47:39;;;;;;;2.53;1.50;;;;;12.50;98938.00;;;;16595668;28;20333;-47
2022/09/18 04:55:44;;;;;;;2.23;1.30;;;;;12.70;98938.00;;;;16596219;28;20198;-47
2022/09/18 05:03:49;;;;;;;1.77;1.60;;;;;12.60;98936.00;;;;16595346;28;20608;-46
2022/09/18 05:12:10;;;;;;;2.50;1.80;;;;;12.80;98943.00;;;;16583767;28;20233;-47
2022/09/18 05:20:18;;;;;;;2.50;1.40;;;;;13.20;98943.00;;;;16558131;28;20235;-47
2022/09/18 05:28:20;;;;;;;1.80;1.60;;;;;13.40;98943.00;;;;16549559;28;20232;-47
2022/09/18 05:36:27;;;;;;;1.60;1.50;;;;;13.40;98945.00;;;;16557819;28;20206;-47
2022/09/18 05:44:30;;;;;;;2.53;1.87;;;;;13.20;98944.00;;;;16590027;28;20313;-46
2022/09/18 05:52:35;;;;;;;2.40;1.60;;;;;13.20;98958.00;;;;16586252;28;20237;-47
2022/09/18 06:00:39;;;;;;;2.30;1.70;;;;;13.50;98945.00;;;;16589692;28;20216;-47
2022/09/18 06:08:48;;;;;;;2.90;1.50;;;;;13.50;98960.00;;;;16597549;28;20245;-47
2022/09/18 06:16:52;;;;;;;2.70;1.90;;;;;12.90;98968.00;;;;16601765;28;20238;-46
2022/09/18 06:24:56;;;;;;;5.23;1.87;;;;;13.10;98976.00;;;;16589909;28;20212;-47
2022/09/18 06:33:07;;;;;;;1.80;1.70;;;;;12.80;98978.00;;;;16578430;28;20252;-46
2022/09/18 06:41:11;;;;;;;2.83;2.33;;;;;13.10;98977.00;;;;16586234;28;20233;-47
2022/09/18 06:49:23;;;;;;;3.20;2.20;;;;;12.70;98981.00;;;;16582713;28;20241;-46
2022/09/18 06:57:27;;;;;;;4.93;2.73;;;;;13.90;98968.00;;;;16596875;28;20222;-47
2022/09/18 07:05:31;;;;;;;4.33;2.70;;;;;13.70;98956.00;;;;16564329;28;20722;-46
2022/09/18 07:13:36;;;;;;;4.93;3.33;;;;;13.30;98964.00;;;;16557791;28;20230;-46
2022/09/18 07:21:41;;;;;;;3.23;2.60;;;;;13.90;98956.00;;;;16553716;28;20227;-47
2022/09/18 07:29:46;;;;;;;2.57;2.33;;;;;13.50;98958.00;;;;16560856;28;20773;-47
2022/09/18 07:37:50;;;;;;;3.63;2.10;;;;;13.50;98972.00;;;;16583634;28;20235;-47
2022/09/18 07:46:07;;;;;;;4.07;2.80;;;;;13.50;98976.00;;;;16595904;28;20240;-47
2022/09/18 07:54:10;;;;;;;4.40;2.53;;;;;13.50;98984.00;;;;16578641;28;20317;-47
2022/09/18 08:02:35;;;;;;;3.07;2.13;;;;;13.50;98992.00;;;;16567802;28;20220;-48
2022/09/18 08:10:37;;;;;;;2.00;1.80;;;;;13.70;98991.00;;;;16578820;28;20241;-48
2022/09/18 08:19:08;;;;;;;2.90;1.80;;;;;13.50;98998.00;;;;16561578;28;20229;-46
2022/09/18 08:27:23;;;;;;;3.33;2.07;;;;;13.80;99016.00;;;;16574610;28;20226;-48
2022/09/18 08:35:29;;;;;;;6.23;2.87;;;;;13.70;99017.00;;;;16570494;28;20220;-45
2022/09/18 08:43:46;;;;;;;2.90;1.93;;;;;13.50;99007.00;;;;16562340;28;20225;-48
2022/09/18 08:51:55;;;;;;;2.60;2.20;;;;;13.80;99017.00;;;;16557049;28;20229;-49
2022/09/18 09:00:00;;;;;;;2.93;1.70;;;;;13.70;99012.00;;;;16563492;28;20245;-46
2022/09/18 09:08:23;;;;;;;3.33;2.10;;;;;14.00;99011.00;;;;16585713;28;20236;-47
2022/09/18 09:16:32;;;;;;;6.13;2.00;;;;;14.20;99008.00;;;;16586451;28;20209;-46
2022/09/18 09:24:41;;;;;;;4.90;2.10;;;;;14.00;99007.00;;;;16576224;28;20225;-47
2022/09/18 09:33:24;;;;;;;2.40;2.03;;;;;14.20;99009.00;;;;16588121;28;20891;-47
2022/09/18 09:41:43;;;;;;;5.10;1.90;;;;;14.20;99011.00;;;;16570134;28;20367;-48
2022/09/18 09:49:55;;;;;;;2.20;1.80;;;;;14.30;99000.00;;;;16570747;28;20234;-47
2022/09/18 09:58:07;;;;;;;2.50;1.93;;;;;14.80;98988.00;;;;16561673;28;20227;-47
2022/09/18 10:06:26;;;;;;;3.17;1.97;;;;;15.40;98991.00;;;;16592185;28;20652;-47
2022/09/18 10:14:34;;;;;;;2.00;1.30;;;;;15.20;98988.00;;;;16573727;28;20238;-47
2022/09/18 10:22:37;;;;;;;1.60;1.33;;;;;15.90;98965.00;;;;16522456;28;1126019;-48
2022/09/18 10:30:55;;;;;;;3.67;1.50;;;;;15.60;98964.00;;;;16557237;28;20219;-48
2022/09/18 10:38:59;;;;;;;4.23;1.50;;;;;16.30;98958.00;;;;16575406;28;20216;-48
2022/09/18 10:47:21;;;;;;;2.03;1.30;;;;;16.80;98936.00;;;;16588652;28;20215;-48
2022/09/18 10:55:27;;;;;;;5.50;1.67;;;;;16.40;98942.00;;;;16571172;28;20685;-48
2022/09/18 11:03:41;;;;;;;2.67;1.53;;;;;17.40;98928.00;;;;16576810;28;21144;-47
2022/09/18 11:11:50;;;;;;;2.60;1.00;;;;;17.20;98928.00;;;;16572081;28;20669;-48
2022/09/18 11:20:01;;;;;;;1.63;1.03;;;;;17.00;98899.00;;;;16569647;28;20230;-48
2022/09/18 11:28:23;;;;;;;2.97;1.67;;;;;16.60;98901.00;;;;16575075;28;20232;-47
2022/09/18 11:36:30;;;;;;;1.30;0.90;;;;;17.00;98904.00;;;;16570196;28;20203;-47
2022/09/18 11:44:35;;;;;;;2.27;0.70;;;;;16.70;98892.00;;;;16581480;28;20219;-47
2022/09/18 11:52:42;;;;;;;2.23;1.33;;;;;17.50;98873.00;;;;16596903;28;20301;-47
2022/09/18 12:00:49;;;;;;;3.57;1.40;;;;;17.20;98870.00;;;;16588033;28;20215;-47
2022/09/18 12:08:58;;;;;;;2.50;1.17;;;;;17.30;98865.00;;;;16585371;28;20231;-47
2022/09/18 12:17:08;;;;;;;0.90;0.60;;;;;17.50;98859.00;;;;16582894;28;20755;-47
2022/09/18 12:25:15;;;;;;;1.70;0.80;;;;;17.50;98855.00;;;;16568361;28;20332;-47
2022/09/18 12:33:41;;;;;;;1.43;0.80;;;;;17.70;98848.00;;;;16562141;28;20231;-47
2022/09/18 12:41:53;;;;;;;4.50;1.57;;;;;17.70;98850.00;;;;16569319;28;20222;-48
2022/09/18 12:50:08;;;;;;;3.17;1.10;;;;;17.80;98840.00;;;;16568527;28;20239;-47
2022/09/18 12:58:27;;;;;;;2.20;1.00;;;;;17.80;98822.00;;;;16590696;28;20785;-47
2022/09/18 13:06:35;;;;;;;2.10;0.93;;;;;17.90;98820.00;;;;16574818;28;21040;-47
2022/09/18 13:14:43;;;;;;;5.13;0.90;;;;;17.70;98818.00;;;;16594694;28;20333;-46
2022/09/18 13:22:48;;;;;;;2.80;1.20;;;;;17.60;98826.00;;;;16566830;28;20309;-47
2022/09/18 13:31:13;;;;;;;1.73;1.20;;;;;17.90;98813.00;;;;16565746;28;20227;-47
2022/09/18 13:39:21;;;;;;;3.90;1.23;;;;;17.70;98804.00;;;;16565971;28;20724;-47
2022/09/18 13:47:25;;;;;;;3.07;1.07;;;;;17.40;98814.00;;;;16557742;28;20731;-47
2022/09/18 13:55:35;;;;;;;1.47;1.13;;;;;17.50;98813.00;;;;16563957;28;20212;-48
2022/09/18 14:03:40;;;;;;;0.87;0.80;;;;;16.90;98819.00;;;;16559019;28;20599;-47
2022/09/18 14:11:43;;;;;;;1.93;1.20;;;;;16.90;98816.00;;;;16577703;28;20230;-47
2022/09/18 14:19:49;;;;;;;2.27;1.30;;;;;16.80;98818.00;;;;16586806;28;20227;-47
2022/09/18 14:27:55;;;;;;;3.77;1.10;;;;;17.40;98797.00;;;;16587733;28;20728;-47
2022/09/18 14:36:04;;;;;;;3.90;1.73;;;;;17.00;98802.00;;;;16596534;28;20199;-47
2022/09/18 14:44:12;;;;;;;2.00;0.90;;;;;17.10;98801.00;;;;16588255;28;20338;-47
2022/09/18 14:52:21;;;;;;;1.50;1.10;;;;;16.80;98784.00;;;;16550224;28;20231;-47
2022/09/18 15:00:28;;;;;;;3.33;1.60;;;;;17.10;98785.00;;;;16562411;28;20686;-47
2022/09/18 15:08:32;;;;;;;2.40;1.07;;;;;17.10;98771.00;;;;16569161;28;20223;-48
2022/09/18 15:16:35;;;;;;;3.83;1.47;;;;;16.90;98763.00;;;;16564847;28;20275;-47
2022/09/18 15:24:39;;;;;;;1.40;1.10;;;;;16.80;98753.00;;;;16567670;28;21273;-47
2022/09/18 15:32:44;;;;;;;1.43;0.90;;;;;16.90;98762.00;;;;16560783;28;20703;-47
2022/09/18 15:40:48;;;;;;;1.47;0.90;;;;;17.20;98753.00;;;;16570867;28;20212;-47
2022/09/18 15:48:51;;;;;;;1.63;1.07;;;;;16.70;98754.00;;;;16586397;28;20767;-47
2022/09/18 15:56:57;;;;;;;2.37;1.10;;;;;16.80;98759.00;;;;16580621;28;20210;-47
2022/09/18 16:05:07;;;;;;;1.97;1.20;;;;;16.90;98746.00;;;;16577517;28;20203;-47
2022/09/18 16:13:38;;;;;;;1.43;1.03;;;;;16.90;98755.00;;;;16581927;28;20229;-47
2022/09/18 16:21:43;;;;;;;3.13;1.80;;;;;16.80;98739.00;;;;16574737;28;20232;-47
2022/09/18 16:29:46;;;;;;;2.13;1.17;;;;;16.50;98741.00;;;;16577512;28;20625;-46
2022/09/18 16:37:49;;;;;;;1.90;1.20;;;;;16.90;98728.00;;;;16570672;28;20211;-47
2022/09/18 16:45:54;;;;;;;3.77;2.90;;;;;16.60;98727.00;;;;16566078;28;20204;-47
2022/09/18 16:53:57;;;;;;;2.50;2.07;;;;;16.70;98718.00;;;;16571980;28;20215;-47
2022/09/18 17:02:01;;;;;;;3.20;2.60;;;;;16.60;98722.00;;;;16585436;28;20224;-47
2022/09/18 17:10:04;;;;;;;1.53;1.13;;;;;16.80;98714.00;;;;16575220;28;20578;-47
2022/09/18 17:18:08;;;;;;;9.53;7.03;;;;;16.90;98709.00;;;;16555254;28;20294;-47
2022/09/18 17:26:12;;;;;;;4.20;2.10;;;;;17.40;98693.00;;;;16557760;28;20249;-47
2022/09/18 17:34:17;;;;;;;4.70;2.00;;;;;17.40;98695.00;;;;16570387;28;20300;-47
2022/09/18 17:42:20;;;;;;;3.90;2.20;;;;;17.60;98695.00;;;;16556585;28;20216;-47
2022/09/18 17:50:24;;;;;;;10.13;7.83;;;;;17.70;98682.00;;;;16557103;28;20226;-48
2022/09/18 17:58:26;;;;;;;7.67;4.70;;;;;17.50;98686.00;;;;16560866;28;20301;-47
2022/09/18 18:06:30;;;;;;;4.37;2.50;;;;;17.10;98688.00;;;;16576906;28;20219;-47
2022/09/18 18:14:33;;;;;;;4.60;1.93;;;;;17.30;98691.00;;;;16583391;28;20227;-48
2022/09/18 18:22:38;;;;;;;3.00;1.70;;;;;16.90;98698.00;;;;16562026;28;20226;-47
2022/09/18 18:30:42;;;;;;;2.17;1.50;;;;;17.00;98700.00;;;;16568592;28;20335;-48
2022/09/18 18:38:48;;;;;;;2.70;1.50;;;;;16.60;98701.00;;;;16580807;28;20755;-48
2022/09/18 18:46:51;;;;;;;2.40;1.40;;;;;16.60;98703.00;;;;16568146;28;20235;-48
2022/09/18 18:54:56;;;;;;;2.07;1.50;;;;;17.00;98701.00;;;;16566294;28;20856;-47
2022/09/18 19:03:01;;;;;;;5.10;1.37;;;;;16.50;98713.00;;;;16571041;28;20231;-48
2022/09/18 19:11:06;;;;;;;5.80;1.30;;;;;16.50;98712.00;;;;16580297;28;20237;-47
2022/09/18 19:19:09;;;;;;;3.10;1.50;;;;;16.20;98715.00;;;;16578689;28;20314;-47
2022/09/18 19:27:13;;;;;;;2.20;1.40;;;;;16.10;98708.00;;;;16574862;28;20742;-48
2022/09/18 19:35:16;;;;;;;2.73;1.33;;;;;15.90;98707.00;;;;16568134;28;20590;-47
2022/09/18 19:43:27;;;;;;;4.43;1.50;;;;;16.00;98714.00;;;;16576304;28;20295;-47
2022/09/18 19:51:30;;;;;;;3.23;2.03;;;;;16.10;98713.00;;;;16562872;28;20712;-47
2022/09/18 19:59:33;;;;;;;2.33;1.30;;;;;16.10;98728.00;;;;16567649;28;20778;-48
2022/09/18 20:07:37;;;;;;;3.23;1.20;;;;;15.90;98731.00;;;;16566721;28;20374;-47
2022/09/18 20:15:41;;;;;;;4.17;1.87;;;;;15.80;98733.00;;;;16566883;28;20202;-47
2022/09/18 20:23:44;;;;;;;1.43;1.33;;;;;15.10;98755.00;;;;16562523;28;20268;-47
2022/09/18 20:31:48;;;;;;;2.00;1.40;;;;;14.70;98776.00;;;;16564694;28;20686;-48
2022/09/18 20:39:51;;;;;;;2.60;1.47;;;;;14.50;98773.00;;;;16578875;28;20219;-47
2022/09/18 20:48:05;;;;;;;1.53;1.43;;;;;14.40;98778.00;;;;16595211;28;20652;-47
2022/09/18 20:56:10;;;;;;;5.30;1.67;;;;;14.20;98771.00;;;;16580323;28;20219;-47
2022/09/18 21:04:18;;;;;;;1.30;1.20;;;;;14.20;98761.00;;;;16589892;28;20235;-48
2022/09/18 21:12:20;;;;;;;1.30;1.20;;;;;14.60;98741.00;;;;16592437;28;20231;-48
2022/09/18 21:20:26;;;;;;;2.50;1.40;;;;;14.90;98725.00;;;;16590970;28;20250;-47
2022/09/18 21:28:28;;;;;;;1.40;1.30;;;;;15.40;98731.00;;;;16588772;28;20302;-48
2022/09/18 21:36:33;;;;;;;3.07;1.53;;;;;15.00;98726.00;;;;16590414;28;20206;-48
2022/09/18 21:44:38;;;;;;;2.30;1.50;;;;;14.00;98738.00;;;;16590422;28;20258;-47
2022/09/18 21:52:43;;;;;;;2.10;1.27;;;;;14.00;98735.00;;;;16583306;28;20332;-47
2022/09/18 22:00:46;;;;;;;1.20;1.10;;;;;13.80;98734.00;;;;16576089;28;20250;-47
2022/09/18 22:08:53;;;;;;;4.20;1.57;;;;;13.60;98738.00;;;;16597443;28;20221;-47
2022/09/18 22:16:55;;;;;;;2.60;1.20;;;;;13.60;98731.00;;;;16596110;28;20203;-48
2022/09/18 22:25:01;;;;;;;1.13;1.00;;;;;13.50;98754.00;;;;16577721;28;20612;-47
2022/09/18 22:33:04;;;;;;;1.80;1.23;;;;;13.50;98761.00;;;;16587970;28;20329;-48
2022/09/18 22:41:09;;;;;;;1.80;1.40;;;;;13.60;98768.00;;;;16590893;28;20725;-47
2022/09/18 22:49:13;;;;;;;3.10;1.47;;;;;13.60;98791.00;;;;16588504;28;20360;-47
2022/09/18 22:57:17;;;;;;;1.23;1.10;;;;;13.60;98802.00;;;;16593954;28;20211;-48
2022/09/18 23:05:20;;;;;;;1.77;1.30;;;;;13.40;98822.00;;;;16601479;28;21271;-47
2022/09/18 23:13:24;;;;;;;3.63;1.20;;;;;12.70;98874.00;;;;16599451;28;20317;-47
2022/09/18 23:21:27;;;;;;;1.20;1.17;;;;;12.40;98878.00;;;;16592229;28;20333;-47
2022/09/18 23:29:31;;;;;;;1.63;0.83;;;;;12.20;98900.00;;;;16592140;28;20297;-47
2022/09/18 23:37:34;;;;;;;1.80;0.80;;;;;12.10;98904.00;;;;16602856;28;20219;-48
2022/09/18 23:45:37;;;;;;;1.10;1.00;;;;;12.10;98917.00;;;;16590358;28;20344;-47
2022/09/18 23:53:41;;;;;;;2.30;0.70;;;;;11.90;98923.00;;;;16581684;28;20892;-48
